sensor_id;sensor_type;location;lat;lon;timestamp;P1;durP1;ratioP1;P2;durP2;ratioP2
8458;SDS011;4266;48.816;9.154;2023-05-10T00:02:10;2.60;;;1.70;;
8458;SDS011;4266;48.816;9.154;2023-05-10T00:04:35;1.70;;;1.60;;
8458;SDS011;4266;48.816;9.154;2023-05-10T00:07:01;1.77;;;1.77;;
8458;SDS011;4266;48.816;9.154;2023-05-10T00:09:28;1.60;;;1.50;;
8458;SDS011;4266;48.816;9.154;2023-05-10T00:11:53;1.80;;;1.70;;
8458;SDS011;4266;48.816;9.154;2023-05-10T00:14:20;2.60;;;1.60;;
8458;SDS011;4266;48.816;9.154;2023-05-10T00:16:45;1.40;;;1.30;;
8458;SDS011;4266;48.816;9.154;2023-05-10T00:19:11;2.83;;;1.20;;
8458;SDS011;4266;48.816;9.154;2023-05-10T00:21:37;1.20;;;1.20;;
8458;SDS011;4266;48.816;9.154;2023-05-10T00:24:03;2.27;;;1.00;;
8458;SDS011;4266;48.816;9.154;2023-05-10T00:26:36;1.10;;;1.00;;
8458;SDS011;4266;48.816;9.154;2023-05-10T00:29:03;2.27;;;1.20;;
8458;SDS011;4266;48.816;9.154;2023-05-10T00:31:28;4.77;;;1.20;;
8458;SDS011;4266;48.816;9.154;2023-05-10T00:33:54;1.20;;;1.20;;
8458;SDS011;4266;48.816;9.154;2023-05-10T00:36:20;0.90;;;0.90;;
8458;SDS011;4266;48.816;9.154;2023-05-10T00:38:46;2.67;;;1.20;;
8458;SDS011;4266;48.816;9.154;2023-05-10T00:41:12;2.93;;;1.00;;
8458;SDS011;4266;48.816;9.154;2023-05-10T00:43:38;2.30;;;1.07;;
8458;SDS011;4266;48.816;9.154;2023-05-10T00:46:04;1.17;;;1.07;;
8458;SDS011;4266;48.816;9.154;2023-05-10T00:48:30;0.80;;;0.80;;
8458;SDS011;4266;48.816;9.154;2023-05-10T00:50:57;1.37;;;1.20;;
8458;SDS011;4266;48.816;9.154;2023-05-10T00:53:22;1.20;;;1.20;;
8458;SDS011;4266;48.816;9.154;2023-05-10T00:55:48;1.30;;;1.20;;
8458;SDS011;4266;48.816;9.154;2023-05-10T00:58:14;1.47;;;1.20;;
8458;SDS011;4266;48.816;9.154;2023-05-10T01:00:41;2.00;;;1.20;;
8458;SDS011;4266;48.816;9.154;2023-05-10T01:03:06;1.10;;;1.10;;
8458;SDS011;4266;48.816;9.154;2023-05-10T01:05:31;1.10;;;1.10;;
8458;SDS011;4266;48.816;9.154;2023-05-10T01:07:58;3.47;;;1.10;;
8458;SDS011;4266;48.816;9.154;2023-05-10T01:10:24;1.10;;;1.10;;
8458;SDS011;4266;48.816;9.154;2023-05-10T01:12:49;1.10;;;1.10;;
8458;SDS011;4266;48.816;9.154;2023-05-10T01:15:16;2.87;;;1.20;;
8458;SDS011;4266;48.816;9.154;2023-05-10T01:17:42;2.10;;;1.10;;
8458;SDS011;4266;48.816;9.154;2023-05-10T01:20:07;1.03;;;1.03;;
8458;SDS011;4266;48.816;9.154;2023-05-10T01:25:19;1.00;;;1.00;;
8458;SDS011;4266;48.816;9.154;2023-05-10T01:30:53;1.10;;;1.10;;
8458;SDS011;4266;48.816;9.154;2023-05-10T01:33:19;1.40;;;1.10;;
8458;SDS011;4266;48.816;9.154;2023-05-10T01:35:47;1.30;;;1.20;;
8458;SDS011;4266;48.816;9.154;2023-05-10T01:38:29;4.83;;;1.27;;
8458;SDS011;4266;48.816;9.154;2023-05-10T01:40:59;2.90;;;1.07;;
8458;SDS011;4266;48.816;9.154;2023-05-10T01:43:22;9.70;;;1.40;;
8458;SDS011;4266;48.816;9.154;2023-05-10T01:46:02;1.40;;;1.30;;
8458;SDS011;4266;48.816;9.154;2023-05-10T01:48:26;4.90;;;1.30;;
8458;SDS011;4266;48.816;9.154;2023-05-10T01:50:52;1.20;;;1.20;;
8458;SDS011;4266;48.816;9.154;2023-05-10T01:59:15;2.00;;;1.10;;
8458;SDS011;4266;48.816;9.154;2023-05-10T02:01:40;1.50;;;1.40;;
8458;SDS011;4266;48.816;9.154;2023-05-10T02:04:07;3.67;;;1.63;;
8458;SDS011;4266;48.816;9.154;2023-05-10T02:06:31;2.57;;;1.40;;
8458;SDS011;4266;48.816;9.154;2023-05-10T02:08:57;1.20;;;1.20;;
8458;SDS011;4266;48.816;9.154;2023-05-10T02:11:23;1.17;;;1.17;;
8458;SDS011;4266;48.816;9.154;2023-05-10T02:13:49;2.00;;;1.47;;
8458;SDS011;4266;48.816;9.154;2023-05-10T02:16:14;1.37;;;1.27;;
8458;SDS011;4266;48.816;9.154;2023-05-10T02:18:40;1.47;;;1.47;;
8458;SDS011;4266;48.816;9.154;2023-05-10T02:21:06;1.73;;;1.33;;
8458;SDS011;4266;48.816;9.154;2023-05-10T02:23:32;4.30;;;1.30;;
8458;SDS011;4266;48.816;9.154;2023-05-10T02:25:57;1.33;;;1.33;;
8458;SDS011;4266;48.816;9.154;2023-05-10T02:28:24;3.33;;;1.30;;
8458;SDS011;4266;48.816;9.154;2023-05-10T02:30:49;2.40;;;1.50;;
8458;SDS011;4266;48.816;9.154;2023-05-10T02:33:15;2.23;;;1.60;;
8458;SDS011;4266;48.816;9.154;2023-05-10T02:35:40;1.93;;;1.80;;
8458;SDS011;4266;48.816;9.154;2023-05-10T02:38:06;2.10;;;2.00;;
8458;SDS011;4266;48.816;9.154;2023-05-10T02:40:32;4.17;;;1.80;;
8458;SDS011;4266;48.816;9.154;2023-05-10T02:42:57;2.30;;;2.10;;
8458;SDS011;4266;48.816;9.154;2023-05-10T02:45:25;2.97;;;2.10;;
8458;SDS011;4266;48.816;9.154;2023-05-10T02:47:50;2.20;;;2.10;;
8458;SDS011;4266;48.816;9.154;2023-05-10T02:50:16;2.00;;;1.60;;
8458;SDS011;4266;48.816;9.154;2023-05-10T02:52:44;1.60;;;1.50;;
8458;SDS011;4266;48.816;9.154;2023-05-10T02:55:09;2.23;;;1.70;;
8458;SDS011;4266;48.816;9.154;2023-05-10T02:57:35;2.57;;;1.50;;
8458;SDS011;4266;48.816;9.154;2023-05-10T03:00:01;1.83;;;1.73;;
8458;SDS011;4266;48.816;9.154;2023-05-10T03:02:26;1.60;;;1.30;;
8458;SDS011;4266;48.816;9.154;2023-05-10T03:04:51;1.33;;;1.30;;
8458;SDS011;4266;48.816;9.154;2023-05-10T03:07:17;1.40;;;1.40;;
8458;SDS011;4266;48.816;9.154;2023-05-10T03:09:43;2.10;;;1.40;;
8458;SDS011;4266;48.816;9.154;2023-05-10T03:12:15;1.60;;;1.50;;
8458;SDS011;4266;48.816;9.154;2023-05-10T03:15:03;1.77;;;1.50;;
8458;SDS011;4266;48.816;9.154;2023-05-10T03:17:39;3.23;;;1.53;;
8458;SDS011;4266;48.816;9.154;2023-05-10T03:20:03;1.33;;;1.33;;
8458;SDS011;4266;48.816;9.154;2023-05-10T03:22:31;7.30;;;1.50;;
8458;SDS011;4266;48.816;9.154;2023-05-10T03:24:56;2.10;;;1.50;;
8458;SDS011;4266;48.816;9.154;2023-05-10T03:27:22;6.60;;;1.40;;
8458;SDS011;4266;48.816;9.154;2023-05-10T03:29:47;1.70;;;1.60;;
8458;SDS011;4266;48.816;9.154;2023-05-10T03:32:13;1.30;;;1.30;;
8458;SDS011;4266;48.816;9.154;2023-05-10T03:34:41;1.60;;;1.50;;
8458;SDS011;4266;48.816;9.154;2023-05-10T03:37:07;1.67;;;1.50;;
8458;SDS011;4266;48.816;9.154;2023-05-10T03:39:32;1.57;;;1.50;;
8458;SDS011;4266;48.816;9.154;2023-05-10T03:41:58;2.77;;;1.63;;
8458;SDS011;4266;48.816;9.154;2023-05-10T03:44:24;4.57;;;1.60;;
8458;SDS011;4266;48.816;9.154;2023-05-10T03:46:49;1.50;;;1.40;;
8458;SDS011;4266;48.816;9.154;2023-05-10T03:49:15;2.33;;;1.60;;
8458;SDS011;4266;48.816;9.154;2023-05-10T03:51:41;6.13;;;1.80;;
8458;SDS011;4266;48.816;9.154;2023-05-10T03:54:06;1.90;;;1.80;;
8458;SDS011;4266;48.816;9.154;2023-05-10T03:56:32;5.47;;;1.83;;
8458;SDS011;4266;48.816;9.154;2023-05-10T03:58:58;2.10;;;1.90;;
8458;SDS011;4266;48.816;9.154;2023-05-10T04:01:25;3.47;;;1.97;;
8458;SDS011;4266;48.816;9.154;2023-05-10T04:03:51;6.27;;;1.90;;
8458;SDS011;4266;48.816;9.154;2023-05-10T04:06:17;2.97;;;2.13;;
8458;SDS011;4266;48.816;9.154;2023-05-10T04:08:42;2.47;;;2.20;;
8458;SDS011;4266;48.816;9.154;2023-05-10T04:11:10;10.83;;;4.10;;
8458;SDS011;4266;48.816;9.154;2023-05-10T04:13:35;5.53;;;2.27;;
8458;SDS011;4266;48.816;9.154;2023-05-10T04:16:00;4.30;;;2.87;;
8458;SDS011;4266;48.816;9.154;2023-05-10T04:18:26;6.23;;;3.50;;
8458;SDS011;4266;48.816;9.154;2023-05-10T04:20:51;2.03;;;1.93;;
8458;SDS011;4266;48.816;9.154;2023-05-10T04:23:17;2.60;;;2.40;;
8458;SDS011;4266;48.816;9.154;2023-05-10T04:25:43;7.10;;;2.60;;
8458;SDS011;4266;48.816;9.154;2023-05-10T04:28:09;3.33;;;2.43;;
8458;SDS011;4266;48.816;9.154;2023-05-10T04:30:35;2.70;;;2.00;;
8458;SDS011;4266;48.816;9.154;2023-05-10T04:33:01;2.73;;;2.47;;
8458;SDS011;4266;48.816;9.154;2023-05-10T04:35:27;3.10;;;2.17;;
8458;SDS011;4266;48.816;9.154;2023-05-10T04:37:54;2.17;;;2.00;;
8458;SDS011;4266;48.816;9.154;2023-05-10T04:40:20;3.30;;;2.30;;
8458;SDS011;4266;48.816;9.154;2023-05-10T04:42:45;2.13;;;1.93;;
8458;SDS011;4266;48.816;9.154;2023-05-10T04:45:11;2.67;;;2.20;;
8458;SDS011;4266;48.816;9.154;2023-05-10T04:47:36;3.17;;;2.13;;
8458;SDS011;4266;48.816;9.154;2023-05-10T04:50:03;5.87;;;2.10;;
8458;SDS011;4266;48.816;9.154;2023-05-10T04:52:28;2.77;;;1.70;;
8458;SDS011;4266;48.816;9.154;2023-05-10T04:54:54;6.80;;;3.07;;
8458;SDS011;4266;48.816;9.154;2023-05-10T04:57:20;4.53;;;3.23;;
8458;SDS011;4266;48.816;9.154;2023-05-10T04:59:46;2.73;;;1.90;;
8458;SDS011;4266;48.816;9.154;2023-05-10T05:02:14;7.57;;;2.20;;
8458;SDS011;4266;48.816;9.154;2023-05-10T05:04:40;2.60;;;1.77;;
8458;SDS011;4266;48.816;9.154;2023-05-10T05:07:06;7.00;;;2.03;;
8458;SDS011;4266;48.816;9.154;2023-05-10T05:09:32;1.87;;;1.63;;
8458;SDS011;4266;48.816;9.154;2023-05-10T05:11:58;2.63;;;1.60;;
8458;SDS011;4266;48.816;9.154;2023-05-10T05:14:23;2.20;;;1.50;;
8458;SDS011;4266;48.816;9.154;2023-05-10T05:16:49;3.40;;;1.47;;
8458;SDS011;4266;48.816;9.154;2023-05-10T05:19:14;1.47;;;1.40;;
8458;SDS011;4266;48.816;9.154;2023-05-10T05:21:40;1.53;;;1.50;;
8458;SDS011;4266;48.816;9.154;2023-05-10T05:24:07;1.70;;;1.60;;
8458;SDS011;4266;48.816;9.154;2023-05-10T05:26:32;1.70;;;1.60;;
8458;SDS011;4266;48.816;9.154;2023-05-10T05:28:58;4.83;;;1.97;;
8458;SDS011;4266;48.816;9.154;2023-05-10T05:31:24;4.40;;;1.90;;
8458;SDS011;4266;48.816;9.154;2023-05-10T05:33:49;3.63;;;1.90;;
8458;SDS011;4266;48.816;9.154;2023-05-10T05:36:16;4.10;;;1.50;;
8458;SDS011;4266;48.816;9.154;2023-05-10T05:38:41;3.37;;;1.70;;
8458;SDS011;4266;48.816;9.154;2023-05-10T05:41:07;2.67;;;1.60;;
8458;SDS011;4266;48.816;9.154;2023-05-10T05:43:33;2.17;;;1.53;;
8458;SDS011;4266;48.816;9.154;2023-05-10T05:45:58;4.07;;;1.40;;
8458;SDS011;4266;48.816;9.154;2023-05-10T05:48:27;1.53;;;1.43;;
8458;SDS011;4266;48.816;9.154;2023-05-10T05:50:54;1.63;;;1.53;;
8458;SDS011;4266;48.816;9.154;2023-05-10T05:53:19;4.20;;;1.40;;
8458;SDS011;4266;48.816;9.154;2023-05-10T05:55:52;1.50;;;1.40;;
8458;SDS011;4266;48.816;9.154;2023-05-10T05:58:17;3.47;;;1.40;;
8458;SDS011;4266;48.816;9.154;2023-05-10T06:00:43;1.47;;;1.30;;
8458;SDS011;4266;48.816;9.154;2023-05-10T06:03:08;2.13;;;1.47;;
8458;SDS011;4266;48.816;9.154;2023-05-10T06:05:35;1.37;;;1.37;;
8458;SDS011;4266;48.816;9.154;2023-05-10T06:08:01;1.67;;;1.57;;
8458;SDS011;4266;48.816;9.154;2023-05-10T06:10:26;1.93;;;1.40;;
8458;SDS011;4266;48.816;9.154;2023-05-10T06:12:52;1.30;;;1.30;;
8458;SDS011;4266;48.816;9.154;2023-05-10T06:15:18;1.50;;;1.40;;
8458;SDS011;4266;48.816;9.154;2023-05-10T06:17:43;2.53;;;1.40;;
8458;SDS011;4266;48.816;9.154;2023-05-10T06:20:10;1.40;;;1.40;;
8458;SDS011;4266;48.816;9.154;2023-05-10T06:22:36;2.30;;;1.30;;
8458;SDS011;4266;48.816;9.154;2023-05-10T06:25:02;1.57;;;1.30;;
8458;SDS011;4266;48.816;9.154;2023-05-10T06:27:28;1.55;;;1.20;;
8458;SDS011;4266;48.816;9.154;2023-05-10T06:29:54;2.08;;;1.67;;
8458;SDS011;4266;48.816;9.154;2023-05-10T06:32:20;2.80;;;1.40;;
8458;SDS011;4266;48.816;9.154;2023-05-10T06:34:46;3.10;;;1.67;;
8458;SDS011;4266;48.816;9.154;2023-05-10T06:37:11;1.77;;;1.67;;
8458;SDS011;4266;48.816;9.154;2023-05-10T06:39:37;1.80;;;1.70;;
8458;SDS011;4266;48.816;9.154;2023-05-10T06:42:03;2.63;;;1.70;;
8458;SDS011;4266;48.816;9.154;2023-05-10T06:44:29;2.77;;;2.17;;
8458;SDS011;4266;48.816;9.154;2023-05-10T06:46:54;4.60;;;1.67;;
8458;SDS011;4266;48.816;9.154;2023-05-10T06:49:20;4.67;;;1.97;;
8458;SDS011;4266;48.816;9.154;2023-05-10T06:51:46;2.40;;;1.80;;
8458;SDS011;4266;48.816;9.154;2023-05-10T06:54:11;2.77;;;1.57;;
8458;SDS011;4266;48.816;9.154;2023-05-10T06:56:37;1.80;;;1.70;;
8458;SDS011;4266;48.816;9.154;2023-05-10T06:59:03;2.07;;;1.60;;
8458;SDS011;4266;48.816;9.154;2023-05-10T07:01:29;2.00;;;1.80;;
8458;SDS011;4266;48.816;9.154;2023-05-10T07:03:55;4.20;;;1.70;;
8458;SDS011;4266;48.816;9.154;2023-05-10T07:06:20;1.87;;;1.70;;
8458;SDS011;4266;48.816;9.154;2023-05-10T07:08:47;2.10;;;2.00;;
8458;SDS011;4266;48.816;9.154;2023-05-10T07:11:12;2.13;;;1.70;;
8458;SDS011;4266;48.816;9.154;2023-05-10T07:13:38;3.17;;;1.70;;
8458;SDS011;4266;48.816;9.154;2023-05-10T07:16:04;1.97;;;1.77;;
8458;SDS011;4266;48.816;9.154;2023-05-10T07:18:31;4.43;;;1.80;;
8458;SDS011;4266;48.816;9.154;2023-05-10T07:20:57;1.73;;;1.40;;
8458;SDS011;4266;48.816;9.154;2023-05-10T07:23:22;2.00;;;1.80;;
8458;SDS011;4266;48.816;9.154;2023-05-10T07:25:48;3.43;;;1.40;;
8458;SDS011;4266;48.816;9.154;2023-05-10T07:28:14;3.20;;;1.73;;
8458;SDS011;4266;48.816;9.154;2023-05-10T07:30:40;4.77;;;1.60;;
8458;SDS011;4266;48.816;9.154;2023-05-10T07:33:06;4.40;;;2.00;;
8458;SDS011;4266;48.816;9.154;2023-05-10T07:35:32;1.40;;;1.30;;
8458;SDS011;4266;48.816;9.154;2023-05-10T07:37:58;1.70;;;1.60;;
8458;SDS011;4266;48.816;9.154;2023-05-10T07:40:23;1.90;;;1.73;;
8458;SDS011;4266;48.816;9.154;2023-05-10T07:42:49;7.13;;;1.70;;
8458;SDS011;4266;48.816;9.154;2023-05-10T07:45:14;4.00;;;1.50;;
8458;SDS011;4266;48.816;9.154;2023-05-10T07:47:40;1.65;;;1.55;;
8458;SDS011;4266;48.816;9.154;2023-05-10T07:50:06;1.60;;;1.50;;
8458;SDS011;4266;48.816;9.154;2023-05-10T07:52:33;1.60;;;1.50;;
8458;SDS011;4266;48.816;9.154;2023-05-10T07:54:58;3.72;;;1.40;;
8458;SDS011;4266;48.816;9.154;2023-05-10T07:57:25;9.60;;;1.50;;
8458;SDS011;4266;48.816;9.154;2023-05-10T07:59:50;1.67;;;1.50;;
8458;SDS011;4266;48.816;9.154;2023-05-10T08:02:17;1.73;;;1.60;;
8458;SDS011;4266;48.816;9.154;2023-05-10T08:04:42;2.67;;;1.70;;
8458;SDS011;4266;48.816;9.154;2023-05-10T08:07:08;1.40;;;1.40;;
8458;SDS011;4266;48.816;9.154;2023-05-10T08:09:34;1.70;;;1.60;;
8458;SDS011;4266;48.816;9.154;2023-05-10T08:12:00;2.00;;;1.80;;
8458;SDS011;4266;48.816;9.154;2023-05-10T08:14:26;1.55;;;1.45;;
8458;SDS011;4266;48.816;9.154;2023-05-10T08:16:51;2.47;;;1.60;;
8458;SDS011;4266;48.816;9.154;2023-05-10T08:19:16;2.67;;;1.48;;
8458;SDS011;4266;48.816;9.154;2023-05-10T08:21:43;1.70;;;1.60;;
8458;SDS011;4266;48.816;9.154;2023-05-10T08:24:09;4.43;;;1.50;;
8458;SDS011;4266;48.816;9.154;2023-05-10T08:26:35;1.20;;;1.20;;
8458;SDS011;4266;48.816;9.154;2023-05-10T08:29:01;1.08;;;1.08;;
8458;SDS011;4266;48.816;9.154;2023-05-10T08:31:27;1.40;;;1.30;;
8458;SDS011;4266;48.816;9.154;2023-05-10T08:33:53;2.22;;;1.50;;
8458;SDS011;4266;48.816;9.154;2023-05-10T08:36:19;9.15;;;5.70;;
8458;SDS011;4266;48.816;9.154;2023-05-10T08:38:45;9.60;;;3.30;;
8458;SDS011;4266;48.816;9.154;2023-05-10T08:41:10;1.20;;;1.20;;
8458;SDS011;4266;48.816;9.154;2023-05-10T08:43:36;1.10;;;1.10;;
8458;SDS011;4266;48.816;9.154;2023-05-10T08:46:02;1.90;;;1.73;;
8458;SDS011;4266;48.816;9.154;2023-05-10T08:48:27;1.42;;;1.33;;
8458;SDS011;4266;48.816;9.154;2023-05-10T08:50:53;1.05;;;1.05;;
8458;SDS011;4266;48.816;9.154;2023-05-10T08:53:19;1.00;;;1.00;;
8458;SDS011;4266;48.816;9.154;2023-05-10T08:55:45;1.90;;;1.20;;
8458;SDS011;4266;48.816;9.154;2023-05-10T08:58:11;1.10;;;1.10;;
8458;SDS011;4266;48.816;9.154;2023-05-10T09:00:37;1.50;;;1.10;;
8458;SDS011;4266;48.816;9.154;2023-05-10T09:03:03;1.95;;;1.00;;
8458;SDS011;4266;48.816;9.154;2023-05-10T09:05:28;1.00;;;1.00;;
8458;SDS011;4266;48.816;9.154;2023-05-10T09:07:54;5.12;;;1.40;;
8458;SDS011;4266;48.816;9.154;2023-05-10T09:10:20;2.20;;;1.15;;
8458;SDS011;4266;48.816;9.154;2023-05-10T09:12:45;1.92;;;0.90;;
8458;SDS011;4266;48.816;9.154;2023-05-10T09:15:12;0.90;;;0.90;;
8458;SDS011;4266;48.816;9.154;2023-05-10T09:17:38;4.97;;;1.15;;
8458;SDS011;4266;48.816;9.154;2023-05-10T09:20:03;0.90;;;0.90;;
8458;SDS011;4266;48.816;9.154;2023-05-10T09:22:30;1.00;;;0.90;;
8458;SDS011;4266;48.816;9.154;2023-05-10T09:27:44;1.42;;;0.85;;
8458;SDS011;4266;48.816;9.154;2023-05-10T09:30:10;0.80;;;0.80;;
8458;SDS011;4266;48.816;9.154;2023-05-10T09:32:41;2.85;;;1.17;;
8458;SDS011;4266;48.816;9.154;2023-05-10T09:35:07;2.35;;;1.05;;
8458;SDS011;4266;48.816;9.154;2023-05-10T09:37:35;1.40;;;1.30;;
8458;SDS011;4266;48.816;9.154;2023-05-10T09:40:03;1.10;;;1.00;;
8458;SDS011;4266;48.816;9.154;2023-05-10T09:42:26;1.55;;;0.93;;
8458;SDS011;4266;48.816;9.154;2023-05-10T09:44:52;0.85;;;0.85;;
8458;SDS011;4266;48.816;9.154;2023-05-10T09:47:18;1.12;;;1.00;;
8458;SDS011;4266;48.816;9.154;2023-05-10T09:49:48;2.40;;;1.20;;
8458;SDS011;4266;48.816;9.154;2023-05-10T09:52:09;1.10;;;1.10;;
8458;SDS011;4266;48.816;9.154;2023-05-10T09:54:36;1.40;;;1.23;;
8458;SDS011;4266;48.816;9.154;2023-05-10T09:57:02;1.08;;;1.08;;
8458;SDS011;4266;48.816;9.154;2023-05-10T09:59:28;1.37;;;1.27;;
8458;SDS011;4266;48.816;9.154;2023-05-10T10:01:56;1.83;;;1.10;;
8458;SDS011;4266;48.816;9.154;2023-05-10T10:04:21;1.25;;;0.95;;
8458;SDS011;4266;48.816;9.154;2023-05-10T10:06:47;0.82;;;0.82;;
8458;SDS011;4266;48.816;9.154;2023-05-10T10:09:12;1.08;;;0.98;;
8458;SDS011;4266;48.816;9.154;2023-05-10T10:11:38;0.90;;;0.90;;
8458;SDS011;4266;48.816;9.154;2023-05-10T10:14:04;5.25;;;1.20;;
8458;SDS011;4266;48.816;9.154;2023-05-10T10:16:29;4.78;;;1.58;;
8458;SDS011;4266;48.816;9.154;2023-05-10T10:18:55;3.45;;;1.50;;
8458;SDS011;4266;48.816;9.154;2023-05-10T10:21:20;4.50;;;1.25;;
8458;SDS011;4266;48.816;9.154;2023-05-10T10:23:46;2.05;;;1.00;;
8458;SDS011;4266;48.816;9.154;2023-05-10T10:26:12;5.03;;;1.40;;
8458;SDS011;4266;48.816;9.154;2023-05-10T10:28:41;1.33;;;1.23;;
8458;SDS011;4266;48.816;9.154;2023-05-10T10:33:51;2.60;;;0.93;;
8458;SDS011;4266;48.816;9.154;2023-05-10T10:36:15;1.75;;;1.02;;
8458;SDS011;4266;48.816;9.154;2023-05-10T10:41:28;2.87;;;1.25;;
8458;SDS011;4266;48.816;9.154;2023-05-10T10:46:33;1.10;;;1.10;;
8458;SDS011;4266;48.816;9.154;2023-05-10T10:51:38;0.90;;;0.90;;
8458;SDS011;4266;48.816;9.154;2023-05-10T10:54:08;4.15;;;1.02;;
8458;SDS011;4266;48.816;9.154;2023-05-10T10:56:33;1.58;;;1.00;;
8458;SDS011;4266;48.816;9.154;2023-05-10T10:58:59;1.75;;;0.98;;
8458;SDS011;4266;48.816;9.154;2023-05-10T11:01:25;1.33;;;0.90;;
8458;SDS011;4266;48.816;9.154;2023-05-10T11:06:39;1.80;;;0.77;;
8458;SDS011;4266;48.816;9.154;2023-05-10T11:09:07;1.73;;;1.00;;
8458;SDS011;4266;48.816;9.154;2023-05-10T11:11:32;3.03;;;0.90;;
8458;SDS011;4266;48.816;9.154;2023-05-10T11:14:02;1.87;;;0.98;;
8458;SDS011;4266;48.816;9.154;2023-05-10T11:16:28;2.97;;;1.17;;
8458;SDS011;4266;48.816;9.154;2023-05-10T11:19:05;1.08;;;0.98;;
8458;SDS011;4266;48.816;9.154;2023-05-10T11:21:33;0.82;;;0.82;;
8458;SDS011;4266;48.816;9.154;2023-05-10T11:23:59;3.85;;;1.30;;
8458;SDS011;4266;48.816;9.154;2023-05-10T11:26:24;1.73;;;1.05;;
8458;SDS011;4266;48.816;9.154;2023-05-10T11:28:51;2.20;;;1.08;;
8458;SDS011;4266;48.816;9.154;2023-05-10T11:31:17;1.65;;;1.23;;
8458;SDS011;4266;48.816;9.154;2023-05-10T11:33:43;2.83;;;1.15;;
8458;SDS011;4266;48.816;9.154;2023-05-10T11:36:10;1.30;;;1.20;;
8458;SDS011;4266;48.816;9.154;2023-05-10T11:38:34;2.47;;;1.10;;
8458;SDS011;4266;48.816;9.154;2023-05-10T11:41:00;3.67;;;1.42;;
8458;SDS011;4266;48.816;9.154;2023-05-10T11:43:26;2.45;;;1.30;;
8458;SDS011;4266;48.816;9.154;2023-05-10T11:45:52;1.92;;;1.48;;
8458;SDS011;4266;48.816;9.154;2023-05-10T11:48:18;1.20;;;1.20;;
8458;SDS011;4266;48.816;9.154;2023-05-10T11:50:44;4.87;;;1.40;;
8458;SDS011;4266;48.816;9.154;2023-05-10T11:53:09;2.10;;;1.17;;
8458;SDS011;4266;48.816;9.154;2023-05-10T11:55:35;2.03;;;1.37;;
8458;SDS011;4266;48.816;9.154;2023-05-10T11:58:01;1.67;;;1.20;;
8458;SDS011;4266;48.816;9.154;2023-05-10T12:00:26;4.80;;;1.35;;
8458;SDS011;4266;48.816;9.154;2023-05-10T12:02:52;4.22;;;1.42;;
8458;SDS011;4266;48.816;9.154;2023-05-10T12:05:18;1.40;;;1.30;;
8458;SDS011;4266;48.816;9.154;2023-05-10T12:07:43;1.40;;;1.30;;
8458;SDS011;4266;48.816;9.154;2023-05-10T12:10:10;1.80;;;1.52;;
8458;SDS011;4266;48.816;9.154;2023-05-10T12:12:41;1.48;;;1.37;;
8458;SDS011;4266;48.816;9.154;2023-05-10T12:15:06;3.15;;;1.50;;
8458;SDS011;4266;48.816;9.154;2023-05-10T12:17:32;1.58;;;1.48;;
8458;SDS011;4266;48.816;9.154;2023-05-10T12:19:59;1.87;;;1.15;;
8458;SDS011;4266;48.816;9.154;2023-05-10T12:22:24;1.35;;;1.30;;
8458;SDS011;4266;48.816;9.154;2023-05-10T12:24:49;6.18;;;1.70;;
8458;SDS011;4266;48.816;9.154;2023-05-10T12:27:15;3.72;;;1.60;;
8458;SDS011;4266;48.816;9.154;2023-05-10T12:29:41;1.70;;;1.50;;
8458;SDS011;4266;48.816;9.154;2023-05-10T12:32:06;4.20;;;1.50;;
8458;SDS011;4266;48.816;9.154;2023-05-10T12:34:33;2.45;;;1.52;;
8458;SDS011;4266;48.816;9.154;2023-05-10T12:36:59;2.00;;;1.33;;
8458;SDS011;4266;48.816;9.154;2023-05-10T12:39:24;2.42;;;1.35;;
8458;SDS011;4266;48.816;9.154;2023-05-10T12:41:50;2.37;;;1.60;;
8458;SDS011;4266;48.816;9.154;2023-05-10T12:44:15;2.42;;;1.50;;
8458;SDS011;4266;48.816;9.154;2023-05-10T12:46:41;1.92;;;1.33;;
8458;SDS011;4266;48.816;9.154;2023-05-10T12:49:07;1.40;;;1.30;;
8458;SDS011;4266;48.816;9.154;2023-05-10T12:51:33;1.67;;;1.55;;
8458;SDS011;4266;48.816;9.154;2023-05-10T12:53:59;1.50;;;1.20;;
8458;SDS011;4266;48.816;9.154;2023-05-10T12:56:25;2.85;;;1.50;;
8458;SDS011;4266;48.816;9.154;2023-05-10T12:58:51;1.85;;;1.45;;
8458;SDS011;4266;48.816;9.154;2023-05-10T13:01:17;3.45;;;1.40;;
8458;SDS011;4266;48.816;9.154;2023-05-10T13:03:43;2.03;;;1.65;;
8458;SDS011;4266;48.816;9.154;2023-05-10T13:06:08;1.75;;;1.40;;
8458;SDS011;4266;48.816;9.154;2023-05-10T13:08:34;12.65;;;1.60;;
8458;SDS011;4266;48.816;9.154;2023-05-10T13:11:01;3.00;;;1.50;;
8458;SDS011;4266;48.816;9.154;2023-05-10T13:13:26;3.97;;;1.58;;
8458;SDS011;4266;48.816;9.154;2023-05-10T13:15:52;2.33;;;1.40;;
8458;SDS011;4266;48.816;9.154;2023-05-10T13:18:21;1.27;;;1.20;;
8458;SDS011;4266;48.816;9.154;2023-05-10T13:20:47;3.33;;;1.60;;
8458;SDS011;4266;48.816;9.154;2023-05-10T13:23:13;5.12;;;1.55;;
8458;SDS011;4266;48.816;9.154;2023-05-10T13:25:39;3.75;;;1.80;;
8458;SDS011;4266;48.816;9.154;2023-05-10T13:28:04;2.05;;;1.58;;
8458;SDS011;4266;48.816;9.154;2023-05-10T13:30:30;2.75;;;1.92;;
8458;SDS011;4266;48.816;9.154;2023-05-10T13:32:56;1.87;;;1.30;;
8458;SDS011;4266;48.816;9.154;2023-05-10T13:35:21;2.75;;;1.70;;
8458;SDS011;4266;48.816;9.154;2023-05-10T13:37:47;4.50;;;1.70;;
8458;SDS011;4266;48.816;9.154;2023-05-10T13:40:13;3.83;;;1.52;;
8458;SDS011;4266;48.816;9.154;2023-05-10T13:42:39;5.57;;;1.58;;
8458;SDS011;4266;48.816;9.154;2023-05-10T13:45:05;5.68;;;1.67;;
8458;SDS011;4266;48.816;9.154;2023-05-10T13:47:31;1.70;;;1.60;;
8458;SDS011;4266;48.816;9.154;2023-05-10T13:49:57;3.08;;;1.50;;
8458;SDS011;4266;48.816;9.154;2023-05-10T13:52:23;9.65;;;1.55;;
8458;SDS011;4266;48.816;9.154;2023-05-10T13:54:48;2.25;;;1.52;;
8458;SDS011;4266;48.816;9.154;2023-05-10T13:57:15;3.92;;;1.45;;
8458;SDS011;4266;48.816;9.154;2023-05-10T13:59:40;6.62;;;1.65;;
8458;SDS011;4266;48.816;9.154;2023-05-10T14:02:06;2.78;;;1.58;;
8458;SDS011;4266;48.816;9.154;2023-05-10T14:04:32;3.30;;;1.70;;
8458;SDS011;4266;48.816;9.154;2023-05-10T14:06:58;2.15;;;1.62;;
8458;SDS011;4266;48.816;9.154;2023-05-10T14:09:24;2.62;;;1.35;;
8458;SDS011;4266;48.816;9.154;2023-05-10T14:11:49;2.33;;;1.30;;
8458;SDS011;4266;48.816;9.154;2023-05-10T14:14:15;2.92;;;1.60;;
8458;SDS011;4266;48.816;9.154;2023-05-10T14:16:43;2.72;;;1.58;;
8458;SDS011;4266;48.816;9.154;2023-05-10T14:19:09;7.75;;;1.67;;
8458;SDS011;4266;48.816;9.154;2023-05-10T14:21:35;1.75;;;1.60;;
8458;SDS011;4266;48.816;9.154;2023-05-10T14:24:00;4.05;;;1.40;;
8458;SDS011;4266;48.816;9.154;2023-05-10T14:26:26;2.05;;;1.20;;
8458;SDS011;4266;48.816;9.154;2023-05-10T14:28:52;1.33;;;1.10;;
8458;SDS011;4266;48.816;9.154;2023-05-10T14:31:18;1.23;;;1.15;;
8458;SDS011;4266;48.816;9.154;2023-05-10T14:33:44;1.92;;;1.50;;
8458;SDS011;4266;48.816;9.154;2023-05-10T14:36:09;2.17;;;1.40;;
8458;SDS011;4266;48.816;9.154;2023-05-10T14:38:35;1.58;;;1.48;;
8458;SDS011;4266;48.816;9.154;2023-05-10T14:41:01;3.47;;;1.20;;
8458;SDS011;4266;48.816;9.154;2023-05-10T14:43:27;3.12;;;1.40;;
8458;SDS011;4266;48.816;9.154;2023-05-10T14:45:53;1.40;;;1.30;;
8458;SDS011;4266;48.816;9.154;2023-05-10T14:48:19;3.12;;;1.30;;
8458;SDS011;4266;48.816;9.154;2023-05-10T14:50:45;2.67;;;1.25;;
8458;SDS011;4266;48.816;9.154;2023-05-10T14:53:11;2.67;;;1.30;;
8458;SDS011;4266;48.816;9.154;2023-05-10T14:55:36;1.73;;;1.48;;
8458;SDS011;4266;48.816;9.154;2023-05-10T14:58:02;2.85;;;1.23;;
8458;SDS011;4266;48.816;9.154;2023-05-10T15:00:28;3.47;;;1.50;;
8458;SDS011;4266;48.816;9.154;2023-05-10T15:02:54;2.58;;;1.30;;
8458;SDS011;4266;48.816;9.154;2023-05-10T15:05:19;1.40;;;1.23;;
8458;SDS011;4266;48.816;9.154;2023-05-10T15:07:45;4.55;;;1.62;;
8458;SDS011;4266;48.816;9.154;2023-05-10T15:10:11;2.62;;;1.40;;
8458;SDS011;4266;48.816;9.154;2023-05-10T15:12:37;1.67;;;1.48;;
8458;SDS011;4266;48.816;9.154;2023-05-10T15:15:02;2.83;;;1.50;;
8458;SDS011;4266;48.816;9.154;2023-05-10T15:17:28;3.60;;;1.58;;
8458;SDS011;4266;48.816;9.154;2023-05-10T15:19:54;1.95;;;1.25;;
8458;SDS011;4266;48.816;9.154;2023-05-10T15:22:19;2.08;;;1.40;;
8458;SDS011;4266;48.816;9.154;2023-05-10T15:24:45;1.30;;;1.20;;
8458;SDS011;4266;48.816;9.154;2023-05-10T15:27:11;3.00;;;1.50;;
8458;SDS011;4266;48.816;9.154;2023-05-10T15:29:37;2.70;;;1.40;;
8458;SDS011;4266;48.816;9.154;2023-05-10T15:32:03;2.95;;;1.30;;
8458;SDS011;4266;48.816;9.154;2023-05-10T15:34:29;3.33;;;1.40;;
8458;SDS011;4266;48.816;9.154;2023-05-10T15:36:55;1.50;;;1.40;;